Latest Coastal Weather Observations for Bundaberg

IDQ60701

Issued at 8:32 am EST Thursday 1 October 2020 (issued every 10 minutes, with the page automatically refreshed every 10 minutes)

About coastal observations | Map of coastal stations | Coastal observations for QLD | Marine services | Other Formats
Station Details ID: 039128 Name: BUNDABERG AERO Lat: -24.91 Lon: 152.32 Height: 30.82 m
Data from the previous 72 hours. | See also: Recent months at Bundaberg
Date/Time
EST
Wind Sea
Height
m
Swell Vis
km
Cloud Weather Temp
°C
Press
MSL
hPa
Rain since
9am
mm
Dir  Spd
kts
Gust
kts
Height
m
Period
s
Dir
01/08:30am NNE 7 12 - - - - 10 Clear - 23.3 1020.1 0.0
01/08:00am S 1 4 - - - - 10 - - 21.4 1020.1 0.0
01/07:30am SE 1 3 - - - - 10 - - 19.8 1019.7 0.0
01/07:00am S 4 5 - - - - 10 - - 17.6 1019.7 0.0
01/06:30am SW 4 6 - - - - 10 Partly cloudy - 16.1 1019.5 0.0
01/06:00am CALM 0 3 - - - - 10 Cloudy - 15.1 1019.0 0.0
01/05:30am SSW 1 3 - - - - 10 Partly cloudy - 14.5 1018.8 0.0
01/05:00am SSW 3 3 - - - - 10 Partly cloudy - 13.7 1018.6 0.0
01/04:30am CALM 0 0 - - - - 10 Partly cloudy - 13.1 1018.0 0.0
01/04:11am S 1 4 - - - - 5 Partly cloudy - 13.1 1017.7 0.0
01/04:00am CALM 0 0 - - - - 10 Partly cloudy - 12.8 1017.7 0.0
01/03:30am CALM 0 0 - - - - 10 - - 12.8 1017.5 0.0
01/03:00am CALM 0 0 - - - - 10 - - 12.8 1017.8 0.0
01/02:30am CALM 0 1 - - - - 10 - - 13.0 1018.0 0.0
01/02:00am CALM 0 0 - - - - 10 - - 13.1 1018.3 0.0
01/01:30am CALM 0 0 - - - - 10 - - 13.6 1018.4 0.0
01/01:00am S 3 3 - - - - 10 - - 13.7 1018.7 0.0
01/12:30am SSW 2 3 - - - - 10 - - 14.1 1019.1 0.0
01/12:00am CALM 0 0 - - - - 10 - - 13.8 1019.4 0.0
 
Date/Time
EST
Wind Sea
Height
m
Swell Vis
km
Cloud Weather Temp
°C
Press
MSL
hPa
Rain since
9am
mm
Dir  Spd
kts
Gust
kts
Height
m
Period
s
Dir
30/11:30pm CALM 0 0 - - - - 10 - - 14.7 1019.6 0.0
30/11:00pm S 4 5 - - - - 10 - - 14.8 1020.0 0.0
30/10:30pm CALM 0 0 - - - - 10 - - 14.8 1019.8 0.0
30/10:00pm CALM 0 0 - - - - 10 - - 15.0 1019.7 0.0
30/09:30pm CALM 0 0 - - - - 10 - - 15.3 1020.1 0.0
30/09:00pm CALM 0 0 - - - - 10 - - 15.8 1020.1 0.0
30/08:30pm CALM 0 0 - - - - 10 - - 16.3 1019.9 0.0
30/08:00pm CALM 0 0 - - - - 10 - - 17.5 1019.7 0.0
30/07:30pm NE 4 5 - - - - 10 - - 19.1 1019.2 0.0
30/07:00pm ENE 5 7 - - - - 10 - - 19.5 1018.7 0.0
30/06:30pm ENE 6 8 - - - - 10 - - 20.1 1018.3 0.0
30/06:00pm NE 8 11 - - - - 10 Partly cloudy - 20.9 1018.1 0.0
30/05:30pm NE 10 12 - - - - 10 - - 21.4 1018.0 0.0
30/05:00pm ENE 10 14 - - - - 10 - - 21.7 1017.7 0.0
30/04:30pm ENE 10 14 - - - - 10 - - 22.2 1017.5 0.0
30/04:00pm ENE 11 15 - - - - 10 Partly cloudy - 23.1 1017.7 0.0
30/03:30pm NE 10 14 - - - - 10 Partly cloudy - 22.8 1017.7 0.0
30/03:00pm NE 12 14 - - - - 10 Mostly cloudy - 22.9 1017.8 0.0
30/02:30pm ENE 11 15 - - - - 10 Cloudy - 23.8 1018.0 0.0
30/02:00pm ENE 10 14 - - - - 10 Partly cloudy - 23.5 1018.1 0.0
30/01:30pm ENE 11 16 - - - - 10 Partly cloudy - 24.1 1018.2 0.0
30/01:00pm ENE 11 17 - - - - 10 Partly cloudy - 24.0 1018.6 0.0
30/12:30pm ENE 11 19 - - - - 10 Partly cloudy - 25.0 1019.0 0.0
30/12:00pm NE 11 15 - - - - 10 Cloudy - 23.6 1019.6 0.0
30/11:30am ENE 10 17 - - - - 10 Cloudy - 23.4 1020.0 0.0
30/11:00am ENE 11 16 - - - - 10 Partly cloudy - 23.0 1020.4 0.0
30/10:30am E 13 18 - - - - 10 Partly cloudy - 22.9 1020.6 0.0
30/10:00am ENE 12 17 - - - - 10 Partly cloudy - 23.5 1020.7 0.0
30/09:30am ENE 12 17 - - - - 10 Partly cloudy - 22.6 1021.0 0.0
30/09:00am E 11 16 - - - - 10 Cloudy - 22.4 1021.2 0.0
30/08:30am ESE 11 15 - - - - 10 - - 21.5 1021.2 0.0
30/08:00am SE 7 9 - - - - 10 Partly cloudy - 19.0 1021.5 0.0
30/07:30am SSE 5 7 - - - - 10 Partly cloudy - 15.6 1021.5 0.0
30/07:00am S 7 9 - - - - 10 Partly cloudy - 15.0 1021.2 0.0
30/06:30am SSW 8 10 - - - - 10 Partly cloudy - 13.8 1021.0 0.0
30/06:00am SSW 8 10 - - - - 10 - - 12.9 1020.6 0.0
30/05:30am S 8 9 - - - - 10 - - 12.4 1020.2 0.0
30/05:00am SSW 9 10 - - - - 10 - - 12.7 1020.1 0.0
30/04:30am SSW 8 9 - - - - 10 Partly cloudy - 12.9 1019.9 0.0
30/04:00am S 6 7 - - - - 10 Partly cloudy - 12.7 1019.5 0.0
30/03:30am S 5 6 - - - - 10 - - 12.6 1019.7 0.0
30/03:00am SSE 5 7 - - - - 10 - - 13.3 1019.8 0.0
30/02:30am S 4 5 - - - - 10 - - 12.8 1020.1 0.0
30/02:00am S 3 5 - - - - 10 - - 13.1 1020.2 0.0
30/01:30am SSE 6 9 - - - - 10 - - 14.0 1020.5 0.0
30/01:00am S 6 7 - - - - 10 - - 13.8 1021.1 0.0
30/12:30am S 7 8 - - - - 10 - - 14.0 1021.5 0.0
30/12:00am SSW 7 8 - - - - 10 - - 14.4 1022.0 0.0
 
Date/Time
EST
Wind Sea
Height
m
Swell Vis
km
Cloud Weather Temp
°C
Press
MSL
hPa
Rain since
9am
mm
Dir  Spd
kts
Gust
kts
Height
m
Period
s
Dir
29/11:30pm S 6 7 - - - - 10 - - 14.5 1022.2 0.0
29/11:00pm S 5 6 - - - - 10 - - 14.9 1022.2 0.0
29/10:30pm S 5 6 - - - - 10 - - 15.4 1022.3 0.0
29/10:00pm SSE 7 10 - - - - 10 - - 16.2 1022.2 0.0
29/09:30pm SSE 7 11 - - - - 10 - - 16.8 1022.3 0.0
29/09:00pm SSE 7 9 - - - - 10 - - 17.1 1022.2 0.0
29/08:30pm SE 6 7 - - - - 10 - - 17.0 1022.2 0.0
29/08:00pm SE 9 11 - - - - 10 - - 18.0 1021.9 0.0
29/07:30pm ESE 9 11 - - - - 10 - - 19.0 1021.8 0.0
29/07:00pm ESE 9 13 - - - - 10 - - 19.5 1021.6 0.0
29/06:30pm ESE 11 15 - - - - 10 - - 19.9 1021.3 0.0
29/06:00pm ESE 12 16 - - - - 10 - - 20.2 1020.9 0.0
29/05:30pm ESE 13 18 - - - - 10 - - 20.8 1020.5 0.0
29/05:00pm ESE 15 20 - - - - 10 - - 21.6 1020.3 0.0
29/04:30pm ESE 16 21 - - - - 10 Partly cloudy - 21.8 1019.9 0.0
29/04:00pm ESE 14 19 - - - - 10 Partly cloudy - 23.0 1019.5 0.0
29/03:30pm E 15 19 - - - - 10 - - 24.0 1019.3 0.0
29/03:00pm ESE 15 20 - - - - 10 - - 23.7 1019.4 0.0
29/02:30pm E 16 21 - - - - 10 Partly cloudy - 24.1 1019.5 0.0
29/02:00pm ESE 16 21 - - - - 10 Partly cloudy - 24.3 1019.9 0.0
29/01:30pm ESE 14 20 - - - - 10 - - 24.3 1020.7 0.0
29/01:00pm E 14 21 - - - - 10 Partly cloudy - 24.3 1021.0 0.0
29/12:30pm E 14 18 - - - - 10 Partly cloudy - 24.9 1021.7 0.0
29/12:00pm E 14 19 - - - - 10 Cloudy Showers 23.8 1022.2 0.0
29/11:30am E 14 17 - - - - 10 Partly cloudy - 22.9 1022.5 0.0
29/11:00am E 14 20 - - - - 10 Partly cloudy - 23.9 1022.9 0.0
29/10:30am ESE 12 18 - - - - 10 Partly cloudy - 23.9 1023.2 0.0
29/10:00am E 15 21 - - - - 10 Partly cloudy - 23.1 1023.4 0.0
29/09:30am ESE 14 20 - - - - 10 Partly cloudy - 23.0 1023.5 0.0
29/09:00am ESE 11 18 - - - - 10 Partly cloudy - 23.3 1023.7 0.0
29/08:30am SE 11 16 - - - - 10 - - 22.1 1023.5 0.0
29/08:00am SE 10 13 - - - - 10 - - 20.8 1023.3 0.0
29/07:30am SSE 11 15 - - - - 10 - - 18.9 1022.8 0.0
29/07:00am SSE 7 10 - - - - 10 - - 17.0 1022.3 0.0
29/06:30am S 7 9 - - - - 10 - - 15.0 1022.1 0.0
29/06:00am S 6 9 - - - - 10 - - 13.9 1021.5 0.0
29/05:30am S 8 10 - - - - 10 - - 13.7 1021.2 0.0
29/05:00am S 7 9 - - - - 10 - - 13.9 1021.1 0.0
29/04:30am S 6 7 - - - - 10 - - 14.0 1021.0 0.0
29/04:00am S 5 7 - - - - 10 - - 13.9 1020.7 0.0
29/03:30am S 5 6 - - - - 10 - - 14.1 1020.6 0.0
29/03:00am S 6 8 - - - - 10 - - 14.5 1020.7 0.0
29/02:30am SSE 6 8 - - - - 10 Partly cloudy - 14.8 1020.9 0.0
29/02:00am SSE 6 9 - - - - 10 - - 15.2 1021.1 0.0
29/01:30am S 7 9 - - - - 10 Partly cloudy - 15.5 1021.5 0.0
29/01:00am S 6 8 - - - - 10 Partly cloudy - 15.4 1021.9 0.0
29/12:30am S 5 7 - - - - 10 Partly cloudy - 15.5 1022.3 0.0
29/12:00am S 6 7 - - - - 10 Partly cloudy - 15.5 1022.5 0.0
 
Date/Time
EST
Wind Sea
Height
m
Swell Vis
km
Cloud Weather Temp
°C
Press
MSL
hPa
Rain since
9am
mm
Dir  Spd
kts
Gust
kts
Height
m
Period
s
Dir
28/11:30pm S 5 7 - - - - 10 Partly cloudy - 15.8 1022.7 0.0
28/11:00pm S 5 7 - - - - 10 Partly cloudy - 16.0 1022.7 0.0
28/10:30pm S 7 8 - - - - 10 Partly cloudy - 16.4 1022.7 0.0
28/10:00pm S 6 8 - - - - 10 - - 16.3 1022.7 0.0
28/09:30pm S 7 9 - - - - 10 - - 16.9 1022.7 0.0
28/09:00pm S 6 9 - - - - 10 - - 17.5 1022.6 0.0
28/08:30pm SSE 6 9 - - - - 10 - - 18.2 1022.5 0.0
28/08:00pm ESE 7 10 - - - - 10 - - 18.8 1022.3 0.0
28/07:30pm ESE 9 12 - - - - 10 - - 19.2 1022.1 0.0
28/07:00pm SE 10 13 - - - - 10 - - 19.8 1021.9 0.0
28/06:30pm ESE 10 13 - - - - 10 - - 20.2 1021.4 0.0
28/06:00pm ESE 12 17 - - - - 10 - - 20.7 1020.9 0.0
28/05:30pm ESE 14 19 - - - - 10 Partly cloudy - 21.4 1020.5 0.0
28/05:00pm E 14 18 - - - - 10 Partly cloudy - 22.2 1020.1 0.0
28/04:30pm E 15 20 - - - - 10 Partly cloudy - 22.8 1019.8 0.0
28/04:00pm ESE 15 19 - - - - 10 Partly cloudy - 23.5 1019.5 0.0
28/03:30pm E 15 21 - - - - 10 Partly cloudy - 23.8 1019.4 0.0
28/03:00pm E 13 20 - - - - 10 Partly cloudy - 23.2 1019.4 0.0
28/02:30pm E 13 20 - - - - 10 Partly cloudy - 23.5 1019.6 0.0
28/02:00pm ESE 13 19 - - - - 10 Partly cloudy - 23.6 1020.0 0.0
28/01:30pm E 11 18 - - - - 10 Partly cloudy - 24.6 1020.4 0.0
28/01:00pm ESE 12 23 - - - - 10 Partly cloudy - 24.6 1020.7 0.0
28/12:30pm E 9 17 - - - - 10 Partly cloudy - 26.0 1021.1 0.0
28/12:00pm ESE 7 13 - - - - 10 Mostly clear - 24.3 1021.6 0.0
28/11:30am E 11 18 - - - - 10 Partly cloudy - 24.6 1022.0 0.0
28/11:00am E 12 18 - - - - 10 Partly cloudy - 24.2 1022.5 0.0
28/10:30am ESE 8 16 - - - - 10 Partly cloudy - 23.8 1023.0 0.0
28/10:00am E 9 14 - - - - 10 Partly cloudy - 23.3 1023.3 0.0
28/09:30am ESE 11 17 - - - - 10 Partly cloudy - 22.3 1023.5 0.0
28/09:00am SE 10 15 - - - - 10 - - 22.9 1023.5 0.0

Other formats

Comma delimited format used in spreadsheet applications
http://www.bom.gov.au/fwo/IDQ60701/IDQ60701.94387.axf

JavaScript Object Notation format (JSON) in row-major order
http://www.bom.gov.au/fwo/IDQ60701/IDQ60701.94387.json

Data quality

Most of these data are generated automatically and are frequently updated. Quality checks on data are not normally performed. It is possible for incorrect values to appear. Refer to information at About Latest Weather Observations and please check the disclaimer before using these data.